Time;durP1;ratioP1;P1;durP2;ratioP2;P2;SDS_P1;SDS_P2;PMS_P1;PMS_P2;Temp;Humidity;BMP_temperature;BMP_pressure;BME280_temperature;BME280_humidity;BME280_pressure;Samples;Min_cycle;Max_cycle;Signal;HPM_P1;HPM_P2
2023/05/20 00:00:27;;;;;;;;;;;;;;;16.66;52.87;96749.94;4218009;28;5914;-67
2023/05/20 00:02:32;;;;;;;;;;;;;;;16.73;52.83;96744.50;4220078;28;5609;-66
2023/05/20 00:04:35;;;;;;;;;;;;;;;16.75;52.81;96743.22;4217762;28;5613;-67
2023/05/20 00:06:38;;;;;;;;;;;;;;;16.79;52.76;96746.25;4222555;28;5602;-66
2023/05/20 00:08:40;;;;;;;;;;;;;;;16.78;52.91;96753.47;4225978;28;5708;-67
2023/05/20 00:10:43;;;;;;;;;;;;;;;16.75;52.78;96737.88;4230027;28;5659;-67
2023/05/20 00:12:46;;;;;;;;;;;;;;;16.75;52.83;96745.06;4218970;28;5629;-67
2023/05/20 00:14:49;;;;;;;;;;;;;;;16.72;52.82;96733.03;4227347;28;5807;-66
2023/05/20 00:16:52;;;;;;;;;;;;;;;16.71;52.78;96739.41;4225847;28;6583;-66
2023/05/20 00:18:57;;;;;;;;;;;;;;;16.72;52.95;96725.00;4228143;28;5849;-65
2023/05/20 00:21:00;;;;;;;;;;;;;;;16.74;52.91;96738.13;4216855;28;5636;-66
2023/05/20 00:23:03;;;;;;;;;;;;;;;16.75;53.00;96732.53;4228146;28;5712;-67
2023/05/20 00:25:06;;;;;;;;;;;;;;;16.81;52.90;96734.28;4218567;28;5601;-66
2023/05/20 00:27:09;;;;;;;;;;;;;;;16.88;52.81;96743.00;4218114;28;5663;-66
2023/05/20 00:29:12;;;;;;;;;;;;;;;16.92;52.75;96742.53;4233975;28;5632;-66
2023/05/20 00:31:14;;;;;;;;;;;;;;;16.87;52.49;96741.38;4217724;28;5602;-67
2023/05/20 00:33:19;;;;;;;;;;;;;;;16.92;52.85;96737.19;4218650;28;5612;-67
2023/05/20 00:35:23;;;;;;;;;;;;;;;16.96;52.72;96743.66;4226392;28;5613;-67
2023/05/20 00:37:26;;;;;;;;;;;;;;;16.99;52.37;96749.38;4216161;28;6286;-67
2023/05/20 00:39:30;;;;;;;;;;;;;;;17.02;52.67;96742.75;4224728;28;5699;-67
2023/05/20 00:41:32;;;;;;;;;;;;;;;16.99;52.67;96744.03;4226839;28;5701;-67
2023/05/20 00:43:35;;;;;;;;;;;;;;;16.99;52.68;96743.19;4226197;28;5647;-67
2023/05/20 00:45:39;;;;;;;;;;;;;;;16.98;52.69;96741.56;4230120;28;5764;-67
2023/05/20 00:47:43;;;;;;;;;;;;;;;17.00;52.72;96743.00;4217154;28;5605;-67
2023/05/20 00:49:46;;;;;;;;;;;;;;;17.01;52.65;96733.94;4216095;28;5787;-67
2023/05/20 00:51:53;;;;;;;;;;;;;;;16.99;52.56;96727.16;4225517;28;5692;-65
2023/05/20 00:53:57;;;;;;;;;;;;;;;17.00;52.78;96726.16;4220785;28;5695;-66
2023/05/20 00:56:01;;;;;;;;;;;;;;;16.98;52.50;96718.34;4233009;28;5667;-65
2023/05/20 00:58:04;;;;;;;;;;;;;;;16.95;52.74;96715.34;4222121;28;5076;-66
2023/05/20 01:00:09;;;;;;;;;;;;;;;16.97;52.69;96718.59;4217025;28;5610;-66
2023/05/20 01:02:12;;;;;;;;;;;;;;;16.97;52.84;96718.59;4230117;28;5598;-66
2023/05/20 01:04:15;;;;;;;;;;;;;;;16.96;52.67;96711.63;4234041;28;5601;-66
2023/05/20 01:06:18;;;;;;;;;;;;;;;16.96;52.59;96706.28;4218565;28;5925;-66
2023/05/20 01:08:23;;;;;;;;;;;;;;;16.96;52.78;96723.13;4216684;28;5637;-66
2023/05/20 01:10:29;;;;;;;;;;;;;;;16.96;52.79;96716.97;4224016;28;5659;-66
2023/05/20 01:12:37;;;;;;;;;;;;;;;16.94;52.82;96709.19;4230737;28;5897;-66
2023/05/20 01:14:47;;;;;;;;;;;;;;;16.98;52.74;96704.19;4236851;28;5631;-66
2023/05/20 01:16:52;;;;;;;;;;;;;;;16.99;52.78;96705.81;4237128;28;5602;-66
2023/05/20 01:18:57;;;;;;;;;;;;;;;16.99;52.81;96705.81;4236462;28;5842;-67
2023/05/20 01:21:02;;;;;;;;;;;;;;;17.00;52.88;96710.13;4235216;28;5713;-67
2023/05/20 01:23:07;;;;;;;;;;;;;;;16.98;52.93;96705.00;4236830;28;5809;-66
2023/05/20 01:25:09;;;;;;;;;;;;;;;16.98;52.87;96709.53;4237058;28;5874;-66
2023/05/20 01:27:14;;;;;;;;;;;;;;;16.99;52.77;96711.16;4236898;28;5656;-67
2023/05/20 01:29:19;;;;;;;;;;;;;;;16.97;52.95;96714.06;4221089;28;5720;-67
2023/05/20 01:31:26;;;;;;;;;;;;;;;16.98;52.78;96714.88;4224425;28;5597;-67
2023/05/20 01:33:29;;;;;;;;;;;;;;;16.97;52.96;96718.59;4236683;28;5632;-67
2023/05/20 01:35:34;;;;;;;;;;;;;;;16.97;53.04;96721.25;4236807;28;5763;-67
2023/05/20 01:37:40;;;;;;;;;;;;;;;16.98;52.90;96720.22;4233681;27;5647;-67
2023/05/20 01:39:46;;;;;;;;;;;;;;;16.96;52.82;96716.97;4232269;28;5732;-67
2023/05/20 01:41:50;;;;;;;;;;;;;;;16.96;53.08;96712.44;4235443;28;5760;-67
2023/05/20 01:43:53;;;;;;;;;;;;;;;16.97;53.05;96710.56;4236849;28;5757;-67
2023/05/20 01:45:56;;;;;;;;;;;;;;;16.98;53.17;96714.88;4236717;28;6586;-66
2023/05/20 01:48:00;;;;;;;;;;;;;;;16.98;53.17;96717.53;4236537;28;5865;-66
2023/05/20 01:50:04;;;;;;;;;;;;;;;16.99;52.94;96716.50;4226615;28;5711;-66
2023/05/20 01:52:07;;;;;;;;;;;;;;;17.01;53.01;96717.91;4228856;28;5605;-67
2023/05/20 01:54:09;;;;;;;;;;;;;;;17.01;53.20;96717.09;4218268;28;5650;-66
2023/05/20 01:56:14;;;;;;;;;;;;;;;17.03;52.98;96723.00;4223848;28;5077;-66
2023/05/20 01:58:17;;;;;;;;;;;;;;;17.01;53.04;96715.22;4230227;28;5730;-67
2023/05/20 02:00:20;;;;;;;;;;;;;;;17.00;52.96;96716.28;4230775;28;6488;-67
2023/05/20 02:02:23;;;;;;;;;;;;;;;17.00;52.93;96708.28;4217034;28;5628;-67
2023/05/20 02:04:26;;;;;;;;;;;;;;;17.01;52.99;96709.09;4228012;28;5756;-67
2023/05/20 02:06:29;;;;;;;;;;;;;;;17.00;52.99;96712.81;4219562;28;5613;-67
2023/05/20 02:08:32;;;;;;;;;;;;;;;17.01;53.10;96714.41;4219234;28;6473;-67
2023/05/20 02:10:35;;;;;;;;;;;;;;;17.02;53.04;96705.34;4233483;28;5594;-67
2023/05/20 02:12:39;;;;;;;;;;;;;;;16.98;52.80;96710.34;4222650;28;5648;-67
2023/05/20 02:14:42;;;;;;;;;;;;;;;16.94;52.89;96708.38;4223260;28;5663;-67
2023/05/20 02:16:46;;;;;;;;;;;;;;;16.87;53.03;96701.34;4233826;28;5849;-66
2023/05/20 02:18:51;;;;;;;;;;;;;;;16.84;52.98;96699.09;4221908;28;5632;-67
2023/05/20 02:20:54;;;;;;;;;;;;;;;16.85;53.00;96690.06;4224642;28;5644;-66
2023/05/20 02:22:57;;;;;;;;;;;;;;;16.84;52.94;96688.44;4225390;28;5644;-67
2023/05/20 02:25:00;;;;;;;;;;;;;;;16.85;53.09;96695.38;4233402;28;5651;-66
2023/05/20 02:27:03;;;;;;;;;;;;;;;16.86;52.88;96685.53;4228039;28;5750;-67
2023/05/20 02:29:07;;;;;;;;;;;;;;;16.86;52.98;96678.31;4223978;28;5616;-67
2023/05/20 02:31:10;;;;;;;;;;;;;;;16.85;52.92;96679.38;4225812;28;5609;-67
2023/05/20 02:33:13;;;;;;;;;;;;;;;16.87;53.06;96679.97;4228148;28;5629;-66
2023/05/20 02:35:17;;;;;;;;;;;;;;;16.88;52.96;96681.59;4225369;28;5710;-67
2023/05/20 02:37:19;;;;;;;;;;;;;;;16.90;52.85;96680.53;4229421;28;5755;-66
2023/05/20 02:39:22;;;;;;;;;;;;;;;16.90;52.62;96686.69;4234625;28;5647;-67
2023/05/20 02:41:25;;;;;;;;;;;;;;;16.91;52.98;96687.50;4223423;28;5609;-65
2023/05/20 02:43:28;;;;;;;;;;;;;;;16.91;52.84;96685.66;4230808;28;5703;-66
2023/05/20 02:45:33;;;;;;;;;;;;;;;16.93;52.75;96688.06;4218431;28;5822;-66
2023/05/20 02:47:36;;;;;;;;;;;;;;;16.93;52.87;96688.88;4219941;28;5731;-66
2023/05/20 02:49:39;;;;;;;;;;;;;;;16.93;52.85;96696.91;4223218;28;5643;-66
2023/05/20 02:51:42;;;;;;;;;;;;;;;16.95;52.74;96692.13;4231415;28;5672;-66
2023/05/20 02:53:46;;;;;;;;;;;;;;;16.93;52.81;96699.56;4226850;28;5713;-66
2023/05/20 02:55:49;;;;;;;;;;;;;;;16.93;52.89;96690.75;4222915;28;5620;-66
2023/05/20 02:57:52;;;;;;;;;;;;;;;16.91;52.86;96690.97;4218601;28;5616;-66
2023/05/20 02:59:56;;;;;;;;;;;;;;;16.93;52.76;96696.91;4229328;28;5655;-66
2023/05/20 03:02:00;;;;;;;;;;;;;;;16.91;52.85;96690.97;4227055;28;5676;-66
2023/05/20 03:04:03;;;;;;;;;;;;;;;16.92;52.85;96686.44;4221258;28;5851;-65
2023/05/20 03:06:06;;;;;;;;;;;;;;;16.94;53.00;96692.38;4225664;28;5651;-66
2023/05/20 03:08:10;;;;;;;;;;;;;;;16.90;53.13;96686.69;4232110;28;5758;-66
2023/05/20 03:10:13;;;;;;;;;;;;;;;16.91;53.01;96679.50;4235294;28;5691;-66
2023/05/20 03:12:16;;;;;;;;;;;;;;;16.90;52.91;96680.53;4225738;28;5826;-66
2023/05/20 03:14:19;;;;;;;;;;;;;;;16.85;53.10;96675.88;4231421;28;7248;-66
2023/05/20 03:16:23;;;;;;;;;;;;;;;16.83;53.01;96675.31;4222542;28;5855;-66
2023/05/20 03:18:28;;;;;;;;;;;;;;;16.80;53.04;96671.28;4233086;28;5598;-65
2023/05/20 03:20:32;;;;;;;;;;;;;;;16.81;53.18;96670.22;4235151;28;5160;-66
2023/05/20 03:22:35;;;;;;;;;;;;;;;16.82;53.07;96676.38;4225580;28;5647;-66
2023/05/20 03:24:37;;;;;;;;;;;;;;;16.81;53.14;96672.88;4235105;28;5660;-66
2023/05/20 03:26:41;;;;;;;;;;;;;;;16.78;53.06;96677.91;4232867;28;5602;-66
2023/05/20 03:28:44;;;;;;;;;;;;;;;16.75;53.18;96675.69;4235093;28;5638;-65
2023/05/20 03:30:47;;;;;;;;;;;;;;;16.76;53.10;96682.63;4221527;28;5755;-67
2023/05/20 03:32:50;;;;;;;;;;;;;;;16.75;53.16;96673.81;4217703;28;5672;-67
2023/05/20 03:34:56;;;;;;;;;;;;;;;16.75;53.22;96679.16;4223569;28;6349;-66
2023/05/20 03:37:00;;;;;;;;;;;;;;;16.75;53.13;96667.66;4224887;27;5593;-67
2023/05/20 03:39:03;;;;;;;;;;;;;;;16.72;53.20;96676.97;4223938;28;5813;-67
2023/05/20 03:41:06;;;;;;;;;;;;;;;16.70;53.12;96676.38;4228821;28;5877;-67
2023/05/20 03:43:09;;;;;;;;;;;;;;;16.69;53.36;96680.09;4218184;28;5675;-67
2023/05/20 03:45:12;;;;;;;;;;;;;;;16.70;53.29;96681.72;4234701;28;5780;-67
2023/05/20 03:47:15;;;;;;;;;;;;;;;16.71;53.31;96682.53;4218058;28;5617;-67
2023/05/20 03:49:18;;;;;;;;;;;;;;;16.71;53.32;96678.00;4232870;28;5710;-67
2023/05/20 03:51:22;;;;;;;;;;;;;;;16.70;53.47;96676.38;4217944;28;5629;-67
2023/05/20 03:53:25;;;;;;;;;;;;;;;16.70;53.29;96675.59;4231489;28;5626;-67
2023/05/20 03:55:28;;;;;;;;;;;;;;;16.69;53.32;96673.97;4222837;28;5677;-68
2023/05/20 03:57:31;;;;;;;;;;;;;;;16.69;53.43;96671.28;4217401;28;5688;-68
2023/05/20 03:59:34;;;;;;;;;;;;;;;16.67;53.64;96663.50;4217426;28;6445;-68
2023/05/20 04:01:37;;;;;;;;;;;;;;;16.66;53.46;96664.53;4217896;28;5612;-67
2023/05/20 04:03:41;;;;;;;;;;;;;;;16.66;53.52;96669.06;4229115;28;5878;-67
2023/05/20 04:05:44;;;;;;;;;;;;;;;16.65;53.41;96670.09;4225914;28;5651;-67
2023/05/20 04:07:49;;;;;;;;;;;;;;;16.63;53.50;96666.84;4222433;28;5605;-66
2023/05/20 04:09:52;;;;;;;;;;;;;;;16.63;53.53;96670.31;4231256;28;6412;-66
2023/05/20 04:11:55;;;;;;;;;;;;;;;16.63;53.62;96670.31;4227307;28;6405;-66
2023/05/20 04:14:01;;;;;;;;;;;;;;;16.60;53.64;96665.47;4223111;28;5598;-66
2023/05/20 04:16:06;;;;;;;;;;;;;;;16.59;53.63;96671.84;4224162;28;6315;-66
2023/05/20 04:18:09;;;;;;;;;;;;;;;16.58;53.76;96667.56;4231017;28;5594;-66
2023/05/20 04:20:13;;;;;;;;;;;;;;;16.55;53.66;96666.19;4219481;28;5673;-66
2023/05/20 04:22:16;;;;;;;;;;;;;;;16.55;53.84;96668.03;4225973;28;5716;-67
2023/05/20 04:24:23;;;;;;;;;;;;;;;16.56;53.66;96672.31;4231885;28;5751;-66
2023/05/20 04:26:26;;;;;;;;;;;;;;;16.56;53.67;96675.81;4232801;28;5726;-66
2023/05/20 04:28:31;;;;;;;;;;;;;;;16.58;53.77;96678.22;4232083;28;5653;-66
2023/05/20 04:30:34;;;;;;;;;;;;;;;16.59;53.65;96675.31;4219595;28;5724;-66
2023/05/20 04:32:37;;;;;;;;;;;;;;;16.59;53.81;96683.34;4227145;28;5112;-66
2023/05/20 04:34:40;;;;;;;;;;;;;;;16.58;53.80;96672.91;4225337;28;5747;-66
2023/05/20 04:36:44;;;;;;;;;;;;;;;16.57;53.88;96672.09;4217262;28;5613;-66
2023/05/20 04:38:47;;;;;;;;;;;;;;;16.57;53.78;96671.28;4219172;28;5613;-66
2023/05/20 04:40:51;;;;;;;;;;;;;;;16.59;53.87;96674.50;4217693;28;5613;-66
2023/05/20 04:42:54;;;;;;;;;;;;;;;16.56;53.87;96673.13;4218043;28;5700;-66
2023/05/20 04:45:00;;;;;;;;;;;;;;;16.58;53.80;96679.03;4225772;28;5865;-67
2023/05/20 04:47:03;;;;;;;;;;;;;;;16.59;54.17;96674.50;4224995;28;5914;-67
2023/05/20 04:49:06;;;;;;;;;;;;;;;16.60;54.00;96684.94;4221310;28;5729;-67
2023/05/20 04:51:09;;;;;;;;;;;;;;;16.59;53.89;96677.19;4234614;28;5644;-67
2023/05/20 04:53:12;;;;;;;;;;;;;;;16.60;54.01;96676.13;4227022;28;5631;-67
2023/05/20 04:55:15;;;;;;;;;;;;;;;16.59;54.09;96679.84;4218920;28;5885;-67
2023/05/20 04:57:20;;;;;;;;;;;;;;;16.60;53.98;96681.47;4218900;28;5621;-66
2023/05/20 04:59:22;;;;;;;;;;;;;;;16.60;54.07;96678.81;4229799;28;5647;-66
2023/05/20 05:01:25;;;;;;;;;;;;;;;16.62;54.22;96686.56;4234803;28;5602;-66
2023/05/20 05:03:28;;;;;;;;;;;;;;;16.63;54.03;96681.00;4226902;28;5723;-67
2023/05/20 05:05:31;;;;;;;;;;;;;;;16.63;54.14;96677.53;4230193;28;5677;-70
2023/05/20 05:07:34;;;;;;;;;;;;;;;16.63;54.06;96685.53;4231719;28;5676;-68
2023/05/20 05:09:37;;;;;;;;;;;;;;;16.63;54.31;96674.84;4233783;28;6379;-67
2023/05/20 05:11:40;;;;;;;;;;;;;;;16.60;54.17;96665.47;4221161;28;5612;-69
2023/05/20 05:13:44;;;;;;;;;;;;;;;16.62;54.23;96663.38;4220200;28;5676;-69
2023/05/20 05:15:47;;;;;;;;;;;;;;;16.66;54.20;96677.88;4223993;28;5609;-70
2023/05/20 05:17:50;;;;;;;;;;;;;;;16.67;54.26;96671.50;4232066;28;5590;-68
2023/05/20 05:19:54;;;;;;;;;;;;;;;16.70;54.13;96668.38;4227012;28;6360;-68
2023/05/20 05:21:56;;;;;;;;;;;;;;;16.71;54.15;96666.53;4228365;28;5621;-68
2023/05/20 05:23:59;;;;;;;;;;;;;;;16.72;54.10;96666.28;4222761;28;5620;-69
2023/05/20 05:26:02;;;;;;;;;;;;;;;16.76;54.15;96662.13;4222805;28;5616;-69
2023/05/20 05:28:05;;;;;;;;;;;;;;;16.78;54.18;96659.22;4223006;28;5751;-69
2023/05/20 05:30:10;;;;;;;;;;;;;;;16.82;54.20;96658.50;4220142;28;5751;-68
2023/05/20 05:32:13;;;;;;;;;;;;;;;16.86;54.22;96659.63;4231492;28;6480;-69
2023/05/20 05:34:16;;;;;;;;;;;;;;;16.93;54.03;96661.38;4221421;28;6428;-68
2023/05/20 05:36:19;;;;;;;;;;;;;;;16.98;53.96;96664.13;4220064;28;5617;-68
2023/05/20 05:38:22;;;;;;;;;;;;;;;17.03;54.02;96658.91;4234554;28;5751;-69
2023/05/20 05:40:25;;;;;;;;;;;;;;;17.11;53.91;96659.34;4225238;28;5605;-69
2023/05/20 05:42:28;;;;;;;;;;;;;;;17.16;53.84;96659.44;4234924;28;5594;-69
2023/05/20 05:44:31;;;;;;;;;;;;;;;17.24;53.83;96660.94;4230629;28;5700;-67
2023/05/20 05:46:35;;;;;;;;;;;;;;;17.31;53.75;96658.91;4236945;28;5806;-66
2023/05/20 05:48:38;;;;;;;;;;;;;;;17.39;53.60;96660.41;4225015;28;5800;-69
2023/05/20 05:50:45;;;;;;;;;;;;;;;17.43;53.73;96654.31;4227173;28;5692;-69
2023/05/20 05:52:48;;;;;;;;;;;;;;;17.51;53.52;96647.78;4233191;28;5777;-68
2023/05/20 05:54:51;;;;;;;;;;;;;;;17.54;53.55;96641.16;4221154;28;6326;-68
2023/05/20 05:56:55;;;;;;;;;;;;;;;17.55;53.45;96637.41;4234804;28;5930;-69
2023/05/20 05:58:58;;;;;;;;;;;;;;;17.52;53.48;96646.72;4235016;28;5929;-68
2023/05/20 06:01:01;;;;;;;;;;;;;;;17.53;53.47;96643.00;4232513;28;5806;-68
2023/05/20 06:03:05;;;;;;;;;;;;;;;17.59;53.45;96641.25;4234674;28;5770;-70
2023/05/20 06:05:09;;;;;;;;;;;;;;;17.64;53.49;96649.34;4234809;28;5754;-68
2023/05/20 06:07:12;;;;;;;;;;;;;;;17.68;53.40;96647.81;4216829;28;5621;-67
2023/05/20 06:09:15;;;;;;;;;;;;;;;17.76;53.55;96652.78;4223467;28;5854;-67
2023/05/20 06:11:18;;;;;;;;;;;;;;;17.80;53.30;96653.94;4234646;27;5648;-69
2023/05/20 06:13:20;;;;;;;;;;;;;;;17.83;53.15;96652.66;4225371;28;5753;-69
2023/05/20 06:15:23;;;;;;;;;;;;;;;17.86;53.35;96649.47;4227751;28;5716;-69
2023/05/20 06:17:26;;;;;;;;;;;;;;;17.89;53.19;96641.78;4234874;28;5697;-68
2023/05/20 06:19:31;;;;;;;;;;;;;;;17.93;52.97;96642.94;4234167;28;5705;-69
2023/05/20 06:21:34;;;;;;;;;;;;;;;17.95;52.88;96643.47;4234762;28;5899;-69
2023/05/20 06:23:37;;;;;;;;;;;;;;;17.94;53.09;96631.16;4234272;28;5693;-69
2023/05/20 06:25:39;;;;;;;;;;;;;;;17.93;52.91;96631.41;4224746;28;5778;-67
2023/05/20 06:27:42;;;;;;;;;;;;;;;17.91;52.91;96634.34;4230379;28;5652;-67
2023/05/20 06:29:45;;;;;;;;;;;;;;;17.89;53.07;96636.41;4230284;28;5872;-70
2023/05/20 06:31:48;;;;;;;;;;;;;;;17.85;53.02;96629.94;4225994;28;5192;-70
2023/05/20 06:33:51;;;;;;;;;;;;;;;17.84;53.11;96635.53;4231156;28;5696;-70
2023/05/20 06:35:56;;;;;;;;;;;;;;;17.83;52.89;96637.41;4234376;28;5776;-70
2023/05/20 06:37:59;;;;;;;;;;;;;;;17.83;53.06;96637.41;4227768;28;5796;-69
2023/05/20 06:40:03;;;;;;;;;;;;;;;17.86;52.82;96634.25;4234151;28;6533;-70
2023/05/20 06:42:06;;;;;;;;;;;;;;;17.88;52.79;96632.13;4233078;28;5708;-68
2023/05/20 06:44:09;;;;;;;;;;;;;;;17.89;52.65;96628.41;4233472;28;5843;-68
2023/05/20 06:46:12;;;;;;;;;;;;;;;17.89;52.63;96631.06;4234009;28;5689;-70
2023/05/20 06:48:14;;;;;;;;;;;;;;;17.93;52.64;96623.41;4224797;27;5779;-66
2023/05/20 06:50:17;;;;;;;;;;;;;;;17.96;52.63;96626.38;4234246;28;5701;-69
2023/05/20 06:52:22;;;;;;;;;;;;;;;17.99;52.63;96625.88;4233992;28;5784;-67
2023/05/20 06:54:24;;;;;;;;;;;;;;;18.00;52.41;96622.16;4233914;28;5772;-66
2023/05/20 06:56:29;;;;;;;;;;;;;;;18.03;52.55;96621.69;4208884;28;5782;-69
2023/05/20 06:58:32;;;;;;;;;;;;;;;18.00;52.33;96619.47;4214263;28;5877;-66
2023/05/20 07:00:35;;;;;;;;;;;;;;;18.02;52.62;96621.94;4226977;28;5771;-67
2023/05/20 07:02:38;;;;;;;;;;;;;;;18.05;52.39;96613.41;4233241;28;5856;-68
2023/05/20 07:04:41;;;;;;;;;;;;;;;18.03;52.36;96610.19;4233760;28;5775;-69
2023/05/20 07:06:44;;;;;;;;;;;;;;;18.00;52.37;96616.81;4234039;28;5712;-68
2023/05/20 07:08:48;;;;;;;;;;;;;;;18.00;52.34;96622.16;4233848;28;5805;-68
2023/05/20 07:10:51;;;;;;;;;;;;;;;17.98;52.44;96616.25;4233972;28;5594;-69
2023/05/20 07:12:54;;;;;;;;;;;;;;;17.98;52.39;96620.78;4233672;28;5736;-70
2023/05/20 07:14:57;;;;;;;;;;;;;;;17.99;52.40;96615.19;4234057;28;5689;-71
2023/05/20 07:17:00;;;;;;;;;;;;;;;17.99;52.40;96615.19;4225309;28;5684;-69
2023/05/20 07:19:03;;;;;;;;;;;;;;;17.97;52.28;96606.59;4205821;28;5803;-67
2023/05/20 07:21:06;;;;;;;;;;;;;;;17.98;52.20;96602.88;4230430;28;5780;-68
2023/05/20 07:23:09;;;;;;;;;;;;;;;18.00;52.10;96603.44;4231852;28;5791;-68
2023/05/20 07:25:13;;;;;;;;;;;;;;;18.02;52.17;96601.34;4233064;28;6030;-69
2023/05/20 07:27:16;;;;;;;;;;;;;;;18.06;52.18;96601.66;4233673;28;5618;-68
2023/05/20 07:29:20;;;;;;;;;;;;;;;18.09;51.98;96597.69;4233868;28;5261;-69
2023/05/20 07:31:23;;;;;;;;;;;;;;;18.12;52.12;96591.81;4233594;28;5694;-71
2023/05/20 07:33:26;;;;;;;;;;;;;;;18.14;51.95;96597.78;4233732;28;5791;-69
2023/05/20 07:35:29;;;;;;;;;;;;;;;18.17;51.84;96592.72;4233734;28;5768;-70
2023/05/20 07:37:32;;;;;;;;;;;;;;;18.23;51.91;96599.78;4233596;28;5791;-69
2023/05/20 07:39:35;;;;;;;;;;;;;;;18.25;51.85;96583.47;4233608;28;5689;-70
2023/05/20 07:41:40;;;;;;;;;;;;;;;18.30;51.75;96588.88;4233717;28;5693;-70
2023/05/20 07:43:43;;;;;;;;;;;;;;;18.26;51.80;96591.25;4233554;28;5783;-69
2023/05/20 07:45:45;;;;;;;;;;;;;;;18.28;52.04;96601.72;4233691;28;6426;-69
2023/05/20 07:47:48;;;;;;;;;;;;;;;18.29;52.00;96593.44;4227509;28;5681;-70
2023/05/20 07:49:51;;;;;;;;;;;;;;;18.32;51.84;96602.81;4233178;28;5836;-70
2023/05/20 07:51:54;;;;;;;;;;;;;;;18.31;51.87;96593.19;4233285;28;5851;-68
2023/05/20 07:53:57;;;;;;;;;;;;;;;18.36;51.60;96592.47;4232884;28;5897;-68
2023/05/20 07:56:00;;;;;;;;;;;;;;;18.35;51.68;96586.31;4233218;28;5797;-68
2023/05/20 07:58:07;;;;;;;;;;;;;;;18.35;51.62;96594.31;4232969;28;5776;-69
2023/05/20 08:00:12;;;;;;;;;;;;;;;18.38;51.72;96591.16;4222624;28;5585;-68
2023/05/20 08:02:14;;;;;;;;;;;;;;;18.40;51.59;96594.38;4228408;28;5764;-70
2023/05/20 08:04:17;;;;;;;;;;;;;;;18.40;51.59;96586.34;4227320;27;5594;-69
2023/05/20 08:06:21;;;;;;;;;;;;;;;18.42;51.55;96586.09;4220437;28;5670;-68
2023/05/20 08:08:23;;;;;;;;;;;;;;;18.41;51.62;96584.47;4226371;28;5885;-68
2023/05/20 08:10:26;;;;;;;;;;;;;;;18.43;51.56;96585.03;4230141;28;5605;-68
2023/05/20 08:12:29;;;;;;;;;;;;;;;18.42;51.73;96586.09;4231986;28;5751;-70
2023/05/20 08:14:34;;;;;;;;;;;;;;;18.40;51.42;96586.34;4233082;28;6565;-69
2023/05/20 08:16:37;;;;;;;;;;;;;;;18.42;51.39;96586.09;4228881;28;5696;-69
2023/05/20 08:18:40;;;;;;;;;;;;;;;18.42;51.40;96584.22;4222050;28;5674;-67
2023/05/20 08:20:42;;;;;;;;;;;;;;;18.42;51.48;96578.06;4221685;28;5620;-69
2023/05/20 08:22:46;;;;;;;;;;;;;;;18.37;51.46;96573.47;4220504;28;5911;-69
2023/05/20 08:24:49;;;;;;;;;;;;;;;18.35;51.23;96572.91;4229334;27;5704;-68
2023/05/20 08:26:52;;;;;;;;;;;;;;;18.36;51.51;96582.56;4224712;28;5863;-68
2023/05/20 08:28:55;;;;;;;;;;;;;;;18.35;51.58;96580.94;4229467;28;5752;-67
2023/05/20 08:31:01;;;;;;;;;;;;;;;18.34;51.57;96577.44;4205073;28;5671;-67
2023/05/20 08:33:04;;;;;;;;;;;;;;;18.33;51.47;96573.13;4229383;28;5803;-67
2023/05/20 08:35:08;;;;;;;;;;;;;;;18.32;51.35;96565.38;4215938;28;5739;-67
2023/05/20 08:37:11;;;;;;;;;;;;;;;18.31;51.39;96566.41;4217305;28;5632;-69
2023/05/20 08:39:15;;;;;;;;;;;;;;;18.30;51.33;96562.13;4232552;28;5651;-67
2023/05/20 08:41:18;;;;;;;;;;;;;;;18.29;51.41;96561.31;4229661;28;5593;-68
2023/05/20 08:43:21;;;;;;;;;;;;;;;18.33;51.46;96564.31;4224147;28;5598;-67
2023/05/20 08:45:27;;;;;;;;;;;;;;;18.34;51.38;96563.25;4225537;28;5919;-70
2023/05/20 08:47:31;;;;;;;;;;;;;;;18.37;51.34;96565.44;4232112;28;5598;-68
2023/05/20 08:49:35;;;;;;;;;;;;;;;18.39;51.07;96566.00;4221012;28;6427;-71
2023/05/20 08:51:38;;;;;;;;;;;;;;;18.38;51.35;96559.03;4216152;28;5720;-67
2023/05/20 08:53:41;;;;;;;;;;;;;;;18.36;51.40;96560.34;4228030;28;6029;-68
2023/05/20 08:55:48;;;;;;;;;;;;;;;18.35;51.15;96567.56;4232568;28;7080;-66
2023/05/20 08:57:53;;;;;;;;;;;;;;;18.34;51.44;96571.28;4225924;28;5681;-67
2023/05/20 08:59:56;;;;;;;;;;;;;;;18.34;51.28;96579.31;4222211;28;5669;-66
2023/05/20 09:01:59;;;;;;;;;;;;;;;18.32;51.35;96568.03;4201547;28;5726;-71
2023/05/20 09:04:04;;;;;;;;;;;;;;;18.26;51.29;96574.41;4216755;28;5732;-75
2023/05/20 09:06:08;;;;;;;;;;;;;;;18.18;51.21;96570.25;4219140;28;5968;-69
2023/05/20 09:08:11;;;;;;;;;;;;;;;18.19;51.21;96568.41;4223370;28;5717;-72
2023/05/20 09:10:15;;;;;;;;;;;;;;;18.24;51.29;96563.13;4215486;28;5616;-72
2023/05/20 09:12:18;;;;;;;;;;;;;;;18.30;51.14;96564.81;4226078;27;5709;-68
2023/05/20 09:14:22;;;;;;;;;;;;;;;18.33;51.16;96566.97;4209927;28;5644;-70
2023/05/20 09:16:25;;;;;;;;;;;;;;;18.33;51.28;96566.97;4218359;28;5817;-75
2023/05/20 09:18:29;;;;;;;;;;;;;;;18.38;51.08;96568.94;4216480;28;5704;-68
2023/05/20 09:20:35;;;;;;;;;;;;;;;18.41;51.04;96563.88;4228052;28;5594;-70
2023/05/20 09:22:39;;;;;;;;;;;;;;;18.44;51.14;96552.66;4218822;28;5722;-69
2023/05/20 09:24:42;;;;;;;;;;;;;;;18.45;51.21;96553.47;4231555;28;5647;-74
2023/05/20 09:26:45;;;;;;;;;;;;;;;18.45;51.25;96554.28;4228001;28;5659;-73
2023/05/20 09:28:48;;;;;;;;;;;;;;;18.46;51.19;96558.59;4231713;28;5747;-69
2023/05/20 09:30:51;;;;;;;;;;;;;;;18.47;51.08;96557.56;4232094;28;5735;-74
2023/05/20 09:32:55;;;;;;;;;;;;;;;18.50;51.17;96551.69;4228491;28;5768;-75
2023/05/20 09:35:00;;;;;;;;;;;;;;;18.55;50.95;96551.75;4231486;28;5629;-71
2023/05/20 09:37:07;;;;;;;;;;;;;;;18.60;50.97;96562.53;4235413;28;5734;-70
2023/05/20 09:39:15;;;;;;;;;;;;;;;18.63;50.80;96550.50;4235514;28;5728;-69
2023/05/20 09:41:20;;;;;;;;;;;;;;;18.65;51.04;96547.59;4227465;28;5704;-73
2023/05/20 09:43:23;;;;;;;;;;;;;;;18.68;51.10;96545.22;4235372;27;5747;-75
2023/05/20 09:45:26;;;;;;;;;;;;;;;18.70;51.05;96545.81;4235152;28;5734;-74
2023/05/20 09:47:29;;;;;;;;;;;;;;;18.70;51.02;96539.66;4235209;28;6456;-74
2023/05/20 09:49:33;;;;;;;;;;;;;;;18.73;50.89;96544.50;4209680;28;5597;-71
2023/05/20 09:51:36;;;;;;;;;;;;;;;18.73;50.87;96547.16;4230575;27;5673;-67
2023/05/20 09:53:41;;;;;;;;;;;;;;;18.76;51.01;96552.00;4234744;28;5598;-67
2023/05/20 09:55:45;;;;;;;;;;;;;;;18.78;50.98;96547.22;4232119;28;5833;-66
2023/05/20 09:57:48;;;;;;;;;;;;;;;18.81;50.75;96542.19;4233010;27;5579;-66
2023/05/20 09:59:52;;;;;;;;;;;;;;;18.83;50.65;96553.44;4236651;27;5606;-68
2023/05/20 10:01:55;;;;;;;;;;;;;;;18.84;50.81;96547.03;4226854;28;5639;-67
2023/05/20 10:04:00;;;;;;;;;;;;;;;18.87;50.86;96557.22;4221485;28;5992;-68
2023/05/20 10:06:26;;;;;;;;;;;;;;;18.91;50.68;96560.22;4232160;27;5678;-67
2023/05/20 10:08:48;;;;;;;;;;;;;;;18.89;50.57;96559.66;4227860;28;5798;-68
2023/05/20 10:10:58;;;;;;;;;;;;;;;18.95;50.71;96558.66;4221307;28;5767;-68
2023/05/20 10:13:12;;;;;;;;;;;;;;;19.00;50.65;96558.72;4229344;28;5812;-69
2023/05/20 10:15:22;;;;;;;;;;;;;;;19.02;50.42;96556.56;4227507;28;5719;-66
2023/05/20 10:17:35;;;;;;;;;;;;;;;19.02;50.27;96558.44;4234328;27;5683;-67
2023/05/20 10:19:38;;;;;;;;;;;;;;;19.01;50.52;96554.97;4234469;28;5827;-66
2023/05/20 10:21:41;;;;;;;;;;;;;;;19.02;50.65;96547.72;4233960;28;5662;-66
2023/05/20 10:23:45;;;;;;;;;;;;;;;19.04;50.56;96551.81;4227269;28;5624;-67
2023/05/20 10:25:53;;;;;;;;;;;;;;;19.07;50.66;96551.28;4219759;28;5837;-67
2023/05/20 10:28:08;;;;;;;;;;;;;;;19.11;50.27;96548.91;4228899;28;5794;-70
2023/05/20 10:30:19;;;;;;;;;;;;;;;19.15;50.31;96544.69;4234533;28;5743;-67
2023/05/20 10:32:26;;;;;;;;;;;;;;;19.17;50.50;96542.53;4234102;28;6358;-66
2023/05/20 10:34:44;;;;;;;;;;;;;;;19.17;50.35;96545.22;4234264;28;5854;-65
2023/05/20 10:36:57;;;;;;;;;;;;;;;19.16;50.30;96543.63;4234051;28;5812;-65
2023/05/20 10:39:01;;;;;;;;;;;;;;;19.16;50.43;96549.78;4231832;28;5180;-65
2023/05/20 10:41:10;;;;;;;;;;;;;;;19.18;50.33;96550.31;4227000;28;5811;-65
2023/05/20 10:43:17;;;;;;;;;;;;;;;19.21;50.21;96546.31;4229411;28;6130;-65
2023/05/20 10:45:27;;;;;;;;;;;;;;;19.21;50.13;96549.00;4234039;28;5912;-66
2023/05/20 10:47:30;;;;;;;;;;;;;;;19.20;50.29;96550.06;4218932;28;5616;-66
2023/05/20 10:49:34;;;;;;;;;;;;;;;19.19;50.35;96543.91;4234129;28;5734;-65
2023/05/20 10:51:38;;;;;;;;;;;;;;;19.22;50.12;96539.09;4233871;28;5787;-65
2023/05/20 10:53:43;;;;;;;;;;;;;;;19.24;50.16;96537.78;4233787;28;5873;-66